createdAt,value
2022-11-03T00:00:10.032Z,8.68
2022-11-03T00:02:41.347Z,8.98
2022-11-03T00:05:29.616Z,9.38
2022-11-03T00:07:57.988Z,9.77
2022-11-03T00:10:25.942Z,10.77
2022-11-03T00:12:54.527Z,12.52
2022-11-03T00:15:23.236Z,11.57
2022-11-03T00:17:51.195Z,13.52
2022-11-03T00:20:20.281Z,18.88
2022-11-03T00:22:48.337Z,18.20
2022-11-03T00:25:16.470Z,18.55
2022-11-03T00:27:44.381Z,17.40
2022-11-03T00:30:13.233Z,11.40
2022-11-03T00:32:41.052Z,10.30
2022-11-03T00:35:09.162Z,8.27
2022-11-03T00:37:37.073Z,8.73
2022-11-03T00:40:05.667Z,8.30
2022-11-03T00:42:35.243Z,8.82
2022-11-03T00:45:03.549Z,8.45
2022-11-03T00:47:31.497Z,9.00
2022-11-03T00:49:59.274Z,8.32
2022-11-03T00:52:27.392Z,8.55
2022-11-03T00:54:55.598Z,8.20
2022-11-03T00:57:23.497Z,8.65
2022-11-03T00:59:51.417Z,7.90
2022-11-03T01:02:19.430Z,8.55
2022-11-03T01:05:06.596Z,9.32
2022-11-03T01:07:35.144Z,8.40
2022-11-03T01:10:04.314Z,8.23
2022-11-03T01:12:32.401Z,8.40
2022-11-03T01:15:00.370Z,8.65
2022-11-03T01:17:29.258Z,12.13
2022-11-03T01:19:57.137Z,13.60
2022-11-03T01:22:25.182Z,13.85
2022-11-03T01:24:53.079Z,14.18
2022-11-03T01:27:23.208Z,13.98
2022-11-03T01:29:51.300Z,11.43
2022-11-03T01:32:19.189Z,9.90
2022-11-03T01:34:47.107Z,10.13
2022-11-03T01:37:15.285Z,11.50
2022-11-03T01:39:43.115Z,16.08
2022-11-03T01:42:14.993Z,14.40
2022-11-03T01:44:49.360Z,11.70
2022-11-03T01:47:27.943Z,10.55
2022-11-03T01:50:08.711Z,11.30
2022-11-03T01:52:53.949Z,12.80
2022-11-03T01:55:30.497Z,11.75
2022-11-03T01:58:25.585Z,9.10
2022-11-03T02:00:59.486Z,8.23
2022-11-03T02:03:32.947Z,7.93
2022-11-03T02:06:02.920Z,8.00
2022-11-03T02:08:54.030Z,8.25
2022-11-03T02:11:41.057Z,7.93
2022-11-03T02:14:16.211Z,8.48
2022-11-03T02:16:54.848Z,17.45
2022-11-03T02:19:46.271Z,17.85
2022-11-03T02:22:35.104Z,16.02
2022-11-03T02:25:52.688Z,13.93
2022-11-03T02:28:24.909Z,16.67
2022-11-03T02:31:21.465Z,19.67
2022-11-03T02:34:30.731Z,14.32
2022-11-03T02:37:25.909Z,14.45
2022-11-03T02:40:17.620Z,9.75
2022-11-03T02:42:52.270Z,7.68
2022-11-03T02:45:25.211Z,9.55
2022-11-03T02:47:59.136Z,12.20
2022-11-03T02:50:29.721Z,17.65
2022-11-03T02:52:58.758Z,17.98
2022-11-03T02:55:51.847Z,26.92
2022-11-03T02:59:05.109Z,31.15
2022-11-03T03:01:48.902Z,33.78
2022-11-03T03:04:40.163Z,33.28
2022-11-03T03:07:15.928Z,29.60
2022-11-03T03:10:22.034Z,32.40
2022-11-03T03:12:54.319Z,32.53
2022-11-03T03:15:36.827Z,27.83
2022-11-03T03:18:24.779Z,27.83
2022-11-03T03:20:59.765Z,24.58
2022-11-03T03:23:36.000Z,24.23
2022-11-03T03:26:10.981Z,22.73
2022-11-03T03:28:56.097Z,20.90
2022-11-03T03:31:28.022Z,19.30
2022-11-03T03:34:04.654Z,15.07
2022-11-03T03:36:40.650Z,14.20
2022-11-03T03:39:13.966Z,12.10
2022-11-03T03:41:43.677Z,14.00
2022-11-03T03:44:14.204Z,17.42
2022-11-03T03:46:52.188Z,22.23
2022-11-03T03:49:20.786Z,17.73
2022-11-03T03:51:49.994Z,14.30
2022-11-03T03:54:17.969Z,11.88
2022-11-03T03:57:00.301Z,9.90
2022-11-03T03:59:28.285Z,7.60
2022-11-03T04:01:56.541Z,8.52
2022-11-03T04:04:24.546Z,7.57
2022-11-03T04:07:12.359Z,7.78
2022-11-03T04:09:40.475Z,6.95
2022-11-03T04:12:28.167Z,7.05
2022-11-03T04:15:15.730Z,7.25
2022-11-03T04:18:07.849Z,6.93
2022-11-03T04:20:54.993Z,7.35
2022-11-03T04:23:23.141Z,6.45
2022-11-03T04:25:56.673Z,7.47
2022-11-03T04:28:27.373Z,6.47
2022-11-03T04:30:59.678Z,6.85
2022-11-03T04:33:29.745Z,6.78
2022-11-03T04:35:59.814Z,6.80
2022-11-03T04:38:29.478Z,6.40
2022-11-03T04:40:59.304Z,7.35
2022-11-03T04:43:35.951Z,6.93
2022-11-03T04:46:04.359Z,7.50
2022-11-03T04:48:34.505Z,7.13
2022-11-03T04:51:18.517Z,6.70
2022-11-03T04:53:56.467Z,6.85
2022-11-03T04:56:25.977Z,7.57
2022-11-03T04:58:54.704Z,7.43
2022-11-03T05:01:24.842Z,7.57
2022-11-03T05:03:55.087Z,7.60
2022-11-03T05:06:28.169Z,7.18
2022-11-03T05:09:07.993Z,7.63
2022-11-03T05:11:42.718Z,7.50
2022-11-03T05:14:32.425Z,7.28
2022-11-03T05:17:03.058Z,7.85
2022-11-03T05:19:41.793Z,7.88
2022-11-03T05:22:20.869Z,9.10
2022-11-03T05:24:56.096Z,7.82
2022-11-03T05:27:25.118Z,10.85
2022-11-03T05:29:59.592Z,13.75
2022-11-03T05:32:33.189Z,12.95
2022-11-03T05:35:01.402Z,9.23
2022-11-03T05:37:35.630Z,11.70
2022-11-03T05:40:27.238Z,7.25
2022-11-03T05:43:01.199Z,7.13
2022-11-03T05:45:37.569Z,6.43
2022-11-03T05:48:37.602Z,6.75
2022-11-03T05:51:38.565Z,9.23
2022-11-03T05:54:19.962Z,10.73
2022-11-03T05:56:51.363Z,14.55
2022-11-03T05:59:28.367Z,10.02
2022-11-03T06:02:00.817Z,6.25
2022-11-03T06:04:37.538Z,5.22
2022-11-03T06:07:31.281Z,5.20
2022-11-03T06:10:00.379Z,4.75
2022-11-03T06:12:30.695Z,4.78
2022-11-03T06:14:58.663Z,5.88
2022-11-03T06:17:28.819Z,5.07
2022-11-03T06:19:59.564Z,4.95
2022-11-03T06:22:38.377Z,4.75
2022-11-03T06:25:33.307Z,4.32
2022-11-03T06:28:05.501Z,4.82
2022-11-03T06:30:39.361Z,4.57
2022-11-03T06:33:27.896Z,4.72
2022-11-03T06:36:11.171Z,4.50
2022-11-03T06:38:40.060Z,4.78
2022-11-03T06:41:28.116Z,4.93
2022-11-03T06:43:58.531Z,4.75
2022-11-03T06:46:30.548Z,4.63
2022-11-03T06:49:01.419Z,5.05
2022-11-03T06:51:31.208Z,6.18
2022-11-03T06:54:01.135Z,6.05
2022-11-03T06:56:35.367Z,5.75
2022-11-03T06:59:03.605Z,6.30
2022-11-03T07:01:36.221Z,6.10
2022-11-03T07:04:23.948Z,5.57
2022-11-03T07:06:53.765Z,6.60
2022-11-03T07:09:29.060Z,5.82
2022-11-03T07:12:00.593Z,4.95
2022-11-03T07:14:31.831Z,4.90
2022-11-03T07:17:05.030Z,4.30
2022-11-03T07:19:38.089Z,4.70
2022-11-03T07:22:27.203Z,4.20
2022-11-03T07:25:00.717Z,4.47
2022-11-03T07:27:39.200Z,4.13
2022-11-03T07:30:24.173Z,5.18
2022-11-03T07:33:26.994Z,5.05
2022-11-03T07:36:15.037Z,4.63
2022-11-03T07:38:48.144Z,4.57
2022-11-03T07:41:29.553Z,4.53
2022-11-03T07:44:02.919Z,4.60
2022-11-03T07:46:30.938Z,4.97
2022-11-03T07:49:02.946Z,4.28
2022-11-03T07:51:31.975Z,4.82
2022-11-03T07:54:30.238Z,4.20
2022-11-03T07:57:01.288Z,5.13
2022-11-03T07:59:35.492Z,3.67
2022-11-03T08:02:27.355Z,4.22
2022-11-03T08:04:55.892Z,4.38
2022-11-03T08:07:23.839Z,4.45
2022-11-03T08:09:52.787Z,4.00
2022-11-03T08:12:21.301Z,4.03
2022-11-03T08:14:49.564Z,4.47
2022-11-03T08:17:17.642Z,4.05
2022-11-03T08:19:45.721Z,4.13
2022-11-03T08:22:14.871Z,4.05
2022-11-03T08:24:43.048Z,3.95
2022-11-03T08:27:11.558Z,3.88
2022-11-03T08:29:39.586Z,4.00
2022-11-03T08:32:08.044Z,3.63
2022-11-03T08:34:36.055Z,3.67
2022-11-03T08:37:04.091Z,3.85
2022-11-03T08:39:31.978Z,3.70
2022-11-03T08:42:01.224Z,3.30
2022-11-03T08:44:29.200Z,3.42
2022-11-03T08:46:57.073Z,3.35
2022-11-03T08:49:25.313Z,3.47
2022-11-03T08:51:53.320Z,3.47
2022-11-03T08:54:21.189Z,3.35
2022-11-03T08:56:49.867Z,3.47
2022-11-03T08:59:18.382Z,3.65
2022-11-03T09:01:46.844Z,3.58
2022-11-03T09:04:15.759Z,3.22
2022-11-03T09:06:44.054Z,2.80
2022-11-03T09:11:59.920Z,3.33
2022-11-03T09:14:27.794Z,2.88
2022-11-03T09:16:55.933Z,2.42
2022-11-03T09:19:25.058Z,2.50
2022-11-03T09:21:53.745Z,2.47
2022-11-03T09:24:21.793Z,7.10
2022-11-03T09:26:49.840Z,6.78
2022-11-03T09:29:17.904Z,7.55
2022-11-03T09:31:45.804Z,4.30
2022-11-03T09:34:14.922Z,2.90
2022-11-03T09:36:42.934Z,2.58
2022-11-03T09:39:10.856Z,3.30
2022-11-03T09:41:57.936Z,2.70
2022-11-03T09:44:27.607Z,2.53
2022-11-03T09:46:58.456Z,2.30
2022-11-03T09:49:31.104Z,2.22
2022-11-03T09:52:02.099Z,2.70
2022-11-03T09:54:31.186Z,2.55
2022-11-03T09:57:11.772Z,2.50
2022-11-03T09:59:49.077Z,2.83
2022-11-03T10:02:30.705Z,2.17
2022-11-03T10:07:31.310Z,2.25
2022-11-03T10:10:01.621Z,2.55
2022-11-03T10:12:35.898Z,1.92
2022-11-03T10:15:04.167Z,1.92
2022-11-03T10:17:32.297Z,2.10
2022-11-03T10:20:02.218Z,2.03
2022-11-03T10:22:30.461Z,2.05
2022-11-03T10:25:38.860Z,2.55
2022-11-03T10:28:27.134Z,2.42
2022-11-03T10:31:13.704Z,2.17
2022-11-03T10:33:53.170Z,2.20
2022-11-03T10:36:20.959Z,2.30
2022-11-03T10:38:49.288Z,1.70
2022-11-03T10:41:20.773Z,1.63
2022-11-03T10:44:19.702Z,1.90
2022-11-03T10:47:02.479Z,1.83
2022-11-03T10:49:37.716Z,1.65
2022-11-03T10:52:26.546Z,2.03
2022-11-03T10:54:58.357Z,2.17
2022-11-03T10:57:27.680Z,2.03
2022-11-03T10:59:56.107Z,2.40
2022-11-03T11:02:32.293Z,2.72
2022-11-03T11:05:09.066Z,2.10
2022-11-03T11:07:41.517Z,2.92
2022-11-03T11:10:28.456Z,2.30
2022-11-03T11:13:19.003Z,2.00
2022-11-03T11:15:56.064Z,2.10
2022-11-03T11:18:29.753Z,2.67
2022-11-03T11:21:22.562Z,2.10
2022-11-03T11:23:52.832Z,1.98
2022-11-03T11:26:33.635Z,1.70
2022-11-03T11:29:11.194Z,1.48
2022-11-03T11:31:45.229Z,1.70
2022-11-03T11:34:18.841Z,1.60
2022-11-03T11:36:55.750Z,1.88
2022-11-03T11:39:26.282Z,2.03
2022-11-03T11:42:21.077Z,2.25
2022-11-03T11:44:57.162Z,1.58
2022-11-03T11:47:45.502Z,1.33
2022-11-03T11:50:25.490Z,1.40
2022-11-03T11:53:08.164Z,1.42
2022-11-03T11:55:51.123Z,1.60
2022-11-03T11:58:36.579Z,1.65
2022-11-03T12:01:20.978Z,1.90
2022-11-03T12:03:50.079Z,1.42
2022-11-03T12:06:18.146Z,2.20
2022-11-03T12:08:46.067Z,1.90
2022-11-03T12:11:14.256Z,2.00
2022-11-03T12:13:53.985Z,1.45
2022-11-03T12:16:28.692Z,1.48
2022-11-03T12:18:58.944Z,1.77
2022-11-03T12:21:48.935Z,1.98
2022-11-03T12:24:32.324Z,1.63
2022-11-03T12:27:01.688Z,1.60
2022-11-03T12:29:30.269Z,1.88
2022-11-03T12:31:58.128Z,1.83
2022-11-03T12:34:26.321Z,1.77
2022-11-03T12:36:56.392Z,2.25
2022-11-03T12:39:25.246Z,1.88
2022-11-03T12:41:53.921Z,1.83
2022-11-03T12:44:21.964Z,1.70
2022-11-03T12:46:49.873Z,2.05
2022-11-03T12:49:17.920Z,1.98
2022-11-03T12:51:46.014Z,1.73
2022-11-03T12:54:13.924Z,1.83
2022-11-03T12:56:41.974Z,2.13
2022-11-03T12:59:10.239Z,1.88
2022-11-03T13:01:39.852Z,1.70
2022-11-03T13:04:08.554Z,2.47
2022-11-03T13:06:36.458Z,2.72
2022-11-03T13:09:04.436Z,2.20
2022-11-03T13:11:51.482Z,1.73
2022-11-03T13:14:19.538Z,1.48
2022-11-03T13:16:47.638Z,1.65
2022-11-03T13:19:15.665Z,1.70
2022-11-03T13:21:43.759Z,1.58
2022-11-03T13:24:11.786Z,2.00
2022-11-03T13:26:39.904Z,2.40
2022-11-03T13:29:08.229Z,1.70
2022-11-03T13:31:37.045Z,1.80
2022-11-03T13:34:04.978Z,2.20
2022-11-03T13:36:32.857Z,2.00
2022-11-03T13:39:00.932Z,1.98
2022-11-03T13:41:28.738Z,2.10
2022-11-03T13:43:56.580Z,1.80
2022-11-03T13:46:24.733Z,1.80
2022-11-03T13:51:40.586Z,1.85
2022-11-03T13:59:45.965Z,2.10
2022-11-03T14:05:04.385Z,2.00
2022-11-03T14:10:03.872Z,1.98
2022-11-03T14:12:32.432Z,1.75
2022-11-03T14:15:09.552Z,2.10
2022-11-03T14:17:40.472Z,2.20
2022-11-03T14:20:12.366Z,2.10
2022-11-03T14:22:40.885Z,2.15
2022-11-03T14:25:09.812Z,1.92
2022-11-03T14:27:37.789Z,2.28
2022-11-03T14:30:06.907Z,3.17
2022-11-03T14:32:35.150Z,2.63
2022-11-03T14:35:03.411Z,2.30
2022-11-03T14:37:31.581Z,2.72
2022-11-03T14:39:59.639Z,2.53
2022-11-03T14:42:27.569Z,2.47
2022-11-03T14:44:55.812Z,2.15
2022-11-03T14:47:25.680Z,2.90
2022-11-03T14:49:53.640Z,3.13
2022-11-03T14:52:21.443Z,2.88
2022-11-03T14:54:50.232Z,3.75
2022-11-03T14:57:18.062Z,3.80
2022-11-03T14:59:50.540Z,3.35
2022-11-03T15:02:21.211Z,3.35
2022-11-03T15:04:49.324Z,3.28
2022-11-03T15:07:17.264Z,3.38
2022-11-03T15:09:45.485Z,3.65
2022-11-03T15:12:13.377Z,4.00
2022-11-03T15:14:41.280Z,3.58
2022-11-03T15:17:09.495Z,3.60
2022-11-03T15:19:37.491Z,3.75
2022-11-03T15:22:05.520Z,3.50
2022-11-03T15:27:23.047Z,5.47
2022-11-03T15:29:51.183Z,5.55
2022-11-03T15:32:19.080Z,8.80
2022-11-03T15:34:46.998Z,8.35
2022-11-03T15:37:15.933Z,10.52
2022-11-03T15:39:43.930Z,7.25
2022-11-03T15:42:11.851Z,4.90
2022-11-03T15:44:40.912Z,4.32
2022-11-03T15:47:08.973Z,5.68
2022-11-03T15:49:37.155Z,4.95
2022-11-03T15:52:05.349Z,4.63
2022-11-03T15:54:33.998Z,4.68
2022-11-03T15:57:04.741Z,9.00
2022-11-03T15:59:32.736Z,11.85
2022-11-03T16:02:08.656Z,17.67
2022-11-03T16:04:48.817Z,25.05
2022-11-03T16:07:16.776Z,42.58
2022-11-03T16:09:44.726Z,44.22
2022-11-03T16:12:12.752Z,29.00
2022-11-03T16:14:43.931Z,33.70
2022-11-03T16:17:12.390Z,45.78
2022-11-03T16:19:40.316Z,55.78
2022-11-03T16:22:08.740Z,54.72
2022-11-03T16:24:37.057Z,56.25
2022-11-03T16:27:05.025Z,55.13
2022-11-03T16:29:33.180Z,50.35
2022-11-03T16:32:01.639Z,49.88
2022-11-03T16:34:30.304Z,49.55
2022-11-03T16:36:58.731Z,42.90
2022-11-03T16:39:27.129Z,40.15
2022-11-03T16:41:55.290Z,39.55
2022-11-03T16:44:24.702Z,35.85
2022-11-03T16:46:52.762Z,29.63
2022-11-03T16:49:20.810Z,27.08
2022-11-03T16:51:48.778Z,36.03
2022-11-03T16:54:17.032Z,45.38
2022-11-03T16:56:45.023Z,40.38
2022-11-03T16:59:13.148Z,36.30
2022-11-03T17:01:41.567Z,38.15
2022-11-03T17:04:09.602Z,38.03
2022-11-03T17:06:37.757Z,38.28
2022-11-03T17:09:05.861Z,38.40
2022-11-03T17:11:36.900Z,46.17
2022-11-03T17:14:13.806Z,46.38
2022-11-03T17:16:45.513Z,46.75
2022-11-03T17:19:16.677Z,50.92
2022-11-03T17:21:44.708Z,61.10
2022-11-03T17:24:13.533Z,56.58
2022-11-03T17:27:07.984Z,51.90
2022-11-03T17:29:42.916Z,55.67
2022-11-03T17:32:25.225Z,52.17
2022-11-03T17:34:54.625Z,46.22
2022-11-03T17:37:24.566Z,44.40
2022-11-03T17:39:53.114Z,39.45
2022-11-03T17:42:26.286Z,36.80
2022-11-03T17:44:57.858Z,37.03
2022-11-03T17:47:25.994Z,34.20
2022-11-03T17:49:53.936Z,41.13
2022-11-03T17:52:30.718Z,50.83
2022-11-03T17:55:01.970Z,47.22
2022-11-03T17:57:30.627Z,56.58
2022-11-03T18:00:01.582Z,56.80
2022-11-03T18:02:32.533Z,40.33
2022-11-03T18:05:31.552Z,51.53
2022-11-03T18:08:02.389Z,43.25
2022-11-03T18:10:38.085Z,40.67
2022-11-03T18:13:34.489Z,53.13
2022-11-03T18:16:12.590Z,95.15
2022-11-03T18:18:44.084Z,63.58
2022-11-03T18:21:18.925Z,41.15
2022-11-03T18:23:47.125Z,226.13
2022-11-03T18:26:27.431Z,52.72
2022-11-03T18:28:55.660Z,41.28
2022-11-03T18:31:43.219Z,50.03
2022-11-03T18:34:23.053Z,48.22
2022-11-03T18:36:52.995Z,37.80
2022-11-03T18:39:26.587Z,39.88
2022-11-03T18:41:55.849Z,57.70
2022-11-03T18:44:30.981Z,42.92
2022-11-03T18:46:59.157Z,36.80
2022-11-03T18:49:27.743Z,45.17
2022-11-03T18:52:03.946Z,43.05
2022-11-03T18:54:35.333Z,43.13
2022-11-03T18:57:04.533Z,40.22
2022-11-03T18:59:37.846Z,44.40
2022-11-03T19:02:24.168Z,37.97
2022-11-03T19:04:52.572Z,42.53
2022-11-03T19:07:29.246Z,49.05
2022-11-03T19:09:58.314Z,44.97
2022-11-03T19:12:26.387Z,45.70
2022-11-03T19:14:55.116Z,45.10
2022-11-03T19:17:25.607Z,49.25
2022-11-03T19:19:54.035Z,45.00
2022-11-03T19:22:23.706Z,50.28
2022-11-03T19:24:52.418Z,46.58
2022-11-03T19:27:26.285Z,42.72
2022-11-03T19:29:56.027Z,56.92
2022-11-03T19:32:31.787Z,59.13
2022-11-03T19:35:32.991Z,52.13
2022-11-03T19:38:13.833Z,51.13
2022-11-03T19:41:02.678Z,46.42
2022-11-03T19:43:34.777Z,45.78
2022-11-03T19:46:04.929Z,47.28
2022-11-03T19:48:34.531Z,49.25
2022-11-03T19:51:04.974Z,47.70
2022-11-03T19:53:33.381Z,42.45
2022-11-03T19:56:01.620Z,39.35
2022-11-03T19:58:30.323Z,40.42
2022-11-03T20:01:00.044Z,38.45
2022-11-03T20:03:30.095Z,36.55
2022-11-03T20:05:58.893Z,35.05
2022-11-03T20:08:31.645Z,34.90
2022-11-03T20:11:00.689Z,37.30
2022-11-03T20:13:39.485Z,38.95
2022-11-03T20:16:16.463Z,39.50
2022-11-03T20:18:44.783Z,34.17
2022-11-03T20:21:18.023Z,34.72
2022-11-03T20:23:48.703Z,35.47
2022-11-03T20:26:24.231Z,35.35
2022-11-03T20:28:54.633Z,33.30
2022-11-03T20:31:23.292Z,32.90
2022-11-03T20:33:51.540Z,25.90
2022-11-03T20:36:20.887Z,24.30
2022-11-03T20:38:59.726Z,24.65
2022-11-03T20:41:30.478Z,24.88
2022-11-03T20:43:59.830Z,28.92
2022-11-03T20:46:32.882Z,24.38
2022-11-03T20:49:02.592Z,22.70
2022-11-03T20:51:35.266Z,22.65
2022-11-03T20:54:12.652Z,24.65
2022-11-03T20:56:41.548Z,26.55
2022-11-03T20:59:18.052Z,28.10
2022-11-03T21:01:47.139Z,23.20
2022-11-03T21:04:18.770Z,23.27
2022-11-03T21:06:47.324Z,27.52
2022-11-03T21:09:20.327Z,22.60
2022-11-03T21:12:04.154Z,22.75
2022-11-03T21:14:33.468Z,23.92
2022-11-03T21:17:20.016Z,25.88
2022-11-03T21:20:02.324Z,23.90
2022-11-03T21:22:52.505Z,22.23
2022-11-03T21:25:24.448Z,22.63
2022-11-03T21:30:23.408Z,23.27
2022-11-03T21:32:51.888Z,23.83
2022-11-03T21:35:22.257Z,27.42
2022-11-03T21:37:50.660Z,25.92
2022-11-03T21:40:18.782Z,24.05
2022-11-03T21:43:05.523Z,25.92
2022-11-03T21:45:33.592Z,25.23
2022-11-03T21:48:21.203Z,23.10
2022-11-03T21:50:49.945Z,22.17
2022-11-03T21:53:18.381Z,23.27
2022-11-03T21:55:50.226Z,22.55
2022-11-03T21:58:18.308Z,21.92
2022-11-03T22:00:47.443Z,19.67
2022-11-03T22:03:17.003Z,20.10
2022-11-03T22:05:45.529Z,19.75
2022-11-03T22:08:13.677Z,17.08
2022-11-03T22:10:42.109Z,14.40
2022-11-03T22:13:11.045Z,15.07
2022-11-03T22:15:57.802Z,14.55
2022-11-03T22:18:26.537Z,14.90
2022-11-03T22:21:16.077Z,15.88
2022-11-03T22:24:13.472Z,17.85
2022-11-03T22:26:56.847Z,16.98
2022-11-03T22:29:43.423Z,15.90
2022-11-03T22:32:15.264Z,17.40
2022-11-03T22:35:02.071Z,15.88
2022-11-03T22:40:16.614Z,16.13
2022-11-03T22:43:03.692Z,17.75
2022-11-03T22:45:50.582Z,16.52
2022-11-03T22:48:23.623Z,16.52
2022-11-03T22:51:09.076Z,15.25
2022-11-03T22:53:56.695Z,15.13
2022-11-03T22:56:27.360Z,16.02
2022-11-03T22:58:55.686Z,17.37
2022-11-03T23:01:29.450Z,17.00
2022-11-03T23:03:58.165Z,15.50
2022-11-03T23:06:29.395Z,15.73
2022-11-03T23:08:57.675Z,13.95
2022-11-03T23:11:31.025Z,14.52
2022-11-03T23:14:01.023Z,15.27
2022-11-03T23:16:55.418Z,12.50
2022-11-03T23:19:42.011Z,14.75
2022-11-03T23:22:09.841Z,13.93
2022-11-03T23:24:56.602Z,13.63
2022-11-03T23:27:24.595Z,14.25
2022-11-03T23:29:52.610Z,13.98
2022-11-03T23:32:20.781Z,12.80
2022-11-03T23:34:48.651Z,14.30
2022-11-03T23:37:16.632Z,13.20
2022-11-03T23:39:44.904Z,14.00
2022-11-03T23:42:14.285Z,14.30
2022-11-03T23:45:00.980Z,12.68
2022-11-03T23:47:47.413Z,14.88
2022-11-03T23:50:15.503Z,13.73
2022-11-03T23:52:43.378Z,15.38
2022-11-03T23:55:11.155Z,14.85
2022-11-03T23:58:00.686Z,14.77
